Time;durP1;ratioP1;P1;durP2;ratioP2;P2;SDS_P1;SDS_P2;PMS_P1;PMS_P2;Temp;Humidity;BMP_temperature;BMP_pressure;BME280_temperature;BME280_humidity;BME280_pressure;Samples;Min_cycle;Max_cycle;Signal;HPM_P1;HPM_P2
2023/09/02 00:00:34;;;;;;;20.52;13.75;;;15.10;99.90;;;;;;5035480;28;20041;-69
2023/09/02 00:03:00;;;;;;;18.42;14.30;;;15.10;99.90;;;;;;5035430;28;20036;-69
2023/09/02 00:05:27;;;;;;;16.40;13.15;;;15.00;99.90;;;;;;5035142;28;20038;-69
2023/09/02 00:07:53;;;;;;;18.85;13.82;;;15.00;99.90;;;;;;5035416;28;20029;-69
2023/09/02 00:10:19;;;;;;;20.42;13.75;;;15.10;99.90;;;;;;5035351;28;20029;-69
2023/09/02 00:12:45;;;;;;;18.27;14.55;;;15.00;99.90;;;;;;5035153;28;20032;-69
2023/09/02 00:15:11;;;;;;;19.02;14.88;;;15.00;99.90;;;;;;5035180;28;20026;-68
2023/09/02 00:17:36;;;;;;;19.00;13.85;;;15.00;99.90;;;;;;5035164;28;20034;-69
2023/09/02 00:20:05;;;;;;;18.42;13.90;;;14.90;99.90;;;;;;5035134;28;20033;-69
2023/09/02 00:22:32;;;;;;;17.50;13.88;;;14.90;99.90;;;;;;5035128;28;20028;-69
2023/09/02 00:24:59;;;;;;;18.23;13.73;;;14.90;99.90;;;;;;5020953;28;20029;-69
2023/09/02 00:27:25;;;;;;;14.88;13.27;;;15.00;99.90;;;;;;5015245;28;20105;-69
2023/09/02 00:29:51;;;;;;;15.48;12.30;;;15.00;99.90;;;;;;5015210;28;20419;-69
2023/09/02 00:32:17;;;;;;;20.95;13.20;;;15.00;99.90;;;;;;5015120;28;20034;-68
2023/09/02 00:34:44;;;;;;;16.75;13.10;;;14.90;99.90;;;;;;5014782;28;20479;-69
2023/09/02 00:37:10;;;;;;;16.88;12.75;;;15.00;99.90;;;;;;5014025;28;20033;-69
2023/09/02 00:39:35;;;;;;;18.88;12.95;;;15.10;99.90;;;;;;5014967;28;20116;-69
2023/09/02 00:42:04;;;;;;;17.52;12.98;;;15.00;99.90;;;;;;5015058;28;20026;-68
2023/09/02 00:44:30;;;;;;;21.05;13.25;;;15.00;99.90;;;;;;5014984;28;20388;-68
2023/09/02 00:46:59;;;;;;;19.58;13.65;;;15.10;99.90;;;;;;5013763;28;20037;-68
2023/09/02 00:49:25;;;;;;;19.50;13.30;;;15.00;99.90;;;;;;5013615;28;20117;-68
2023/09/02 00:51:51;;;;;;;18.25;15.02;;;14.90;99.90;;;;;;5014891;28;20026;-68
2023/09/02 00:54:17;;;;;;;16.70;13.98;;;14.90;99.90;;;;;;5030257;28;20065;-69
2023/09/02 00:56:43;;;;;;;18.58;14.93;;;14.80;99.90;;;;;;5034524;28;20075;-68
2023/09/02 00:59:11;;;;;;;18.77;15.02;;;14.80;99.90;;;;;;5034736;28;20422;-68
2023/09/02 01:01:40;;;;;;;19.63;14.15;;;14.80;99.90;;;;;;5033292;28;20104;-68
2023/09/02 01:04:06;;;;;;;16.65;13.93;;;14.80;99.90;;;;;;5034268;28;20052;-68
2023/09/02 01:06:34;;;;;;;19.77;14.30;;;14.80;99.90;;;;;;5033324;28;20060;-68
2023/09/02 01:09:01;;;;;;;18.30;14.02;;;14.80;99.90;;;;;;5033188;28;20044;-68
2023/09/02 01:11:27;;;;;;;18.20;13.70;;;14.70;99.90;;;;;;5034216;28;20112;-68
2023/09/02 01:13:53;;;;;;;17.45;14.40;;;14.70;99.90;;;;;;5034635;28;20072;-68
2023/09/02 01:16:19;;;;;;;16.02;13.90;;;14.70;99.90;;;;;;5034214;28;20037;-68
2023/09/02 01:18:46;;;;;;;18.55;13.50;;;14.70;99.90;;;;;;5034740;28;20036;-68
2023/09/02 01:21:31;;;;;;;19.42;13.85;;;14.70;99.90;;;;;;5033118;28;20079;-68
2023/09/02 01:24:12;;;;;;;18.13;13.43;;;14.70;99.90;;;;;;5028418;28;20471;-68
2023/09/02 01:27:05;;;;;;;16.40;13.25;;;14.70;99.90;;;;;;5014522;28;20022;-68
2023/09/02 01:29:36;;;;;;;16.40;13.23;;;14.60;99.90;;;;;;5013239;28;20034;-68
2023/09/02 01:32:06;;;;;;;14.73;13.18;;;14.50;99.90;;;;;;5013314;28;20137;-68
2023/09/02 01:34:34;;;;;;;17.95;14.02;;;14.50;99.90;;;;;;5013291;28;20044;-68
2023/09/02 01:37:01;;;;;;;16.20;13.15;;;14.40;99.90;;;;;;5014748;28;20026;-68
2023/09/02 01:39:30;;;;;;;16.42;13.45;;;14.40;99.90;;;;;;5014465;28;20032;-68
2023/09/02 01:41:57;;;;;;;17.73;12.88;;;14.40;99.90;;;;;;5014457;28;20034;-68
2023/09/02 01:44:25;;;;;;;16.85;13.13;;;14.50;99.90;;;;;;5014374;28;20045;-68
2023/09/02 01:46:51;;;;;;;17.90;13.98;;;14.50;99.90;;;;;;5014587;28;20022;-68
2023/09/02 01:49:17;;;;;;;20.77;12.73;;;14.50;99.90;;;;;;5018219;28;20109;-68
2023/09/02 01:51:44;;;;;;;14.38;12.63;;;14.40;99.90;;;;;;5016962;28;20387;-68
2023/09/02 01:54:11;;;;;;;14.57;13.02;;;14.30;99.90;;;;;;5032374;28;20060;-68
2023/09/02 01:56:37;;;;;;;15.85;12.45;;;14.30;99.90;;;;;;5038129;28;20052;-68
2023/09/02 01:59:03;;;;;;;18.20;12.45;;;14.40;99.90;;;;;;5036422;28;20121;-68
2023/09/02 02:01:30;;;;;;;17.15;12.25;;;14.40;99.90;;;;;;5036398;28;20030;-68
2023/09/02 02:04:06;;;;;;;17.00;12.50;;;14.40;99.90;;;;;;5037572;28;20088;-67
2023/09/02 02:06:33;;;;;;;16.10;12.15;;;14.40;99.90;;;;;;5037555;28;20041;-68
2023/09/02 02:09:04;;;;;;;17.23;12.45;;;14.30;99.90;;;;;;5037626;28;20033;-68
2023/09/02 02:11:35;;;;;;;13.57;12.15;;;14.10;99.90;;;;;;5036261;28;20105;-68
2023/09/02 02:14:02;;;;;;;19.40;13.35;;;14.10;99.90;;;;;;5036121;28;20056;-68
2023/09/02 02:16:29;;;;;;;16.92;13.00;;;14.10;99.90;;;;;;5036231;28;20038;-67
2023/09/02 02:18:56;;;;;;;17.83;13.27;;;14.10;99.90;;;;;;5037386;28;20116;-67
2023/09/02 02:21:23;;;;;;;14.98;12.32;;;14.10;99.90;;;;;;5037507;28;20040;-68
2023/09/02 02:23:50;;;;;;;15.75;12.60;;;14.10;99.90;;;;;;5032382;28;20117;-67
2023/09/02 02:26:16;;;;;;;19.83;12.68;;;14.10;99.90;;;;;;5017480;28;20113;-67
2023/09/02 02:28:42;;;;;;;14.20;11.88;;;14.00;99.90;;;;;;5017565;28;20030;-68
2023/09/02 02:31:09;;;;;;;13.38;11.73;;;14.20;99.90;;;;;;5017456;28;20376;-67
2023/09/02 02:33:38;;;;;;;14.65;11.23;;;14.20;99.90;;;;;;5016060;28;20029;-67
2023/09/02 02:36:04;;;;;;;14.15;11.57;;;14.20;99.90;;;;;;5015833;28;20203;-67
2023/09/02 02:38:31;;;;;;;15.98;11.25;;;14.20;99.90;;;;;;5017272;28;20041;-67
2023/09/02 02:40:57;;;;;;;15.63;11.77;;;14.10;99.90;;;;;;5016011;28;20022;-67
2023/09/02 02:43:26;;;;;;;15.93;11.60;;;14.00;99.90;;;;;;5015810;28;20038;-67
2023/09/02 02:45:53;;;;;;;13.60;11.93;;;14.00;99.90;;;;;;5017646;28;20084;-67
2023/09/02 02:48:22;;;;;;;13.65;11.75;;;13.90;99.90;;;;;;5017043;28;20085;-67
2023/09/02 02:50:48;;;;;;;16.10;12.02;;;13.90;99.90;;;;;;5016904;28;20026;-67
2023/09/02 02:53:14;;;;;;;16.20;12.02;;;13.90;99.90;;;;;;5023671;28;20162;-67
2023/09/02 02:55:41;;;;;;;14.93;11.85;;;13.90;99.90;;;;;;5035365;28;20128;-67
2023/09/02 02:58:08;;;;;;;14.57;11.57;;;14.00;99.90;;;;;;5035251;28;20041;-67
2023/09/02 03:00:34;;;;;;;18.70;12.20;;;14.00;99.90;;;;;;5035467;28;20032;-67
2023/09/02 03:03:03;;;;;;;17.13;10.82;;;14.10;99.90;;;;;;5036565;28;20029;-68
2023/09/02 03:05:37;;;;;;;16.48;11.27;;;14.00;99.90;;;;;;5035152;28;20470;-67
2023/09/02 03:08:09;;;;;;;19.38;11.32;;;13.90;99.90;;;;;;5035322;28;20086;-67
2023/09/02 03:10:36;;;;;;;11.82;10.20;;;13.70;99.90;;;;;;5018788;28;20026;-67
2023/09/02 03:13:04;;;;;;;15.55;10.82;;;13.70;99.90;;;;;;5035118;28;20040;-67
2023/09/02 03:15:31;;;;;;;16.75;11.55;;;13.60;99.90;;;;;;5035143;28;20562;-67
2023/09/02 03:17:58;;;;;;;17.85;11.07;;;13.60;99.90;;;;;;5035116;28;20057;-67
2023/09/02 03:20:26;;;;;;;16.98;11.82;;;13.60;99.90;;;;;;5034965;28;20108;-67
2023/09/02 03:22:52;;;;;;;14.98;11.10;;;13.60;99.90;;;;;;5034907;28;20037;-67
2023/09/02 03:25:18;;;;;;;15.70;12.13;;;13.50;99.90;;;;;;5017871;28;20442;-68
2023/09/02 03:27:46;;;;;;;16.90;11.57;;;13.40;99.90;;;;;;5015092;28;20025;-67
2023/09/02 03:30:13;;;;;;;18.63;10.68;;;13.40;99.90;;;;;;5015077;28;20026;-67
2023/09/02 03:32:39;;;;;;;18.10;12.07;;;13.40;99.90;;;;;;5015116;28;20026;-67
2023/09/02 03:35:07;;;;;;;14.30;11.30;;;13.40;99.90;;;;;;5014997;28;20036;-67
2023/09/02 03:37:34;;;;;;;18.30;11.98;;;13.30;99.90;;;;;;5014850;28;20038;-67
2023/09/02 03:40:00;;;;;;;15.73;11.10;;;13.30;99.90;;;;;;5015986;28;20038;-67
2023/09/02 03:42:26;;;;;;;15.95;11.73;;;13.50;99.90;;;;;;5016105;28;20034;-67
2023/09/02 03:44:52;;;;;;;16.20;12.15;;;13.50;99.90;;;;;;5016163;28;20037;-67
2023/09/02 03:47:18;;;;;;;18.23;13.00;;;13.60;99.90;;;;;;5014596;28;20038;-67
2023/09/02 03:49:46;;;;;;;16.52;13.07;;;13.50;99.90;;;;;;5014765;28;20049;-67
2023/09/02 03:52:12;;;;;;;16.48;13.10;;;13.50;99.90;;;;;;5015743;28;20033;-67
2023/09/02 03:54:38;;;;;;;18.83;13.45;;;13.50;99.90;;;;;;5032530;28;20029;-67
2023/09/02 03:57:05;;;;;;;18.20;12.90;;;13.40;99.90;;;;;;5035547;28;20426;-67
2023/09/02 03:59:31;;;;;;;18.48;12.50;;;13.40;99.90;;;;;;5034185;28;20018;-67
2023/09/02 04:01:57;;;;;;;15.40;12.27;;;13.40;99.90;;;;;;5034127;28;20478;-67
2023/09/02 04:04:25;;;;;;;18.25;12.30;;;13.30;99.90;;;;;;5035160;28;20091;-67
2023/09/02 04:06:51;;;;;;;17.33;11.93;;;13.30;99.90;;;;;;5034020;28;20060;-67
2023/09/02 04:09:17;;;;;;;18.45;12.52;;;13.20;99.90;;;;;;5035029;28;20029;-67
2023/09/02 04:11:43;;;;;;;17.77;12.57;;;13.20;99.90;;;;;;5033652;28;20025;-67
2023/09/02 04:14:09;;;;;;;13.70;12.10;;;13.20;99.90;;;;;;5035183;28;20021;-67
2023/09/02 04:16:35;;;;;;;14.27;11.38;;;13.20;99.90;;;;;;5033875;28;20467;-67
2023/09/02 04:19:03;;;;;;;17.30;11.75;;;13.10;99.90;;;;;;5033895;28;20036;-67
2023/09/02 04:21:30;;;;;;;14.07;11.13;;;13.10;99.90;;;;;;5035095;28;20033;-67
2023/09/02 04:23:56;;;;;;;17.77;11.95;;;13.00;99.90;;;;;;5028116;28;20384;-67
2023/09/02 04:26:22;;;;;;;18.65;11.73;;;13.00;99.90;;;;;;5013882;28;20036;-67
2023/09/02 04:28:49;;;;;;;16.83;12.30;;;13.10;99.90;;;;;;5015230;28;20101;-67
2023/09/02 04:31:17;;;;;;;16.83;12.55;;;13.10;99.90;;;;;;5013977;28;20033;-67
2023/09/02 04:33:44;;;;;;;19.15;11.75;;;13.10;99.90;;;;;;5013794;28;20033;-67
2023/09/02 04:36:12;;;;;;;16.05;12.68;;;13.20;99.90;;;;;;5013783;28;20550;-67
2023/09/02 04:38:41;;;;;;;15.10;12.48;;;13.20;99.90;;;;;;5013872;28;20033;-67
2023/09/02 04:41:07;;;;;;;20.77;12.70;;;13.30;99.90;;;;;;5013557;28;20057;-67
2023/09/02 04:43:34;;;;;;;16.20;12.40;;;13.40;99.90;;;;;;5013662;28;20458;-67
2023/09/02 04:46:02;;;;;;;20.65;12.57;;;13.40;99.90;;;;;;5013608;28;20033;-67
2023/09/02 04:48:29;;;;;;;17.45;12.77;;;13.50;99.90;;;;;;5013691;28;20472;-67
2023/09/02 04:50:56;;;;;;;16.05;12.00;;;13.50;99.90;;;;;;5013623;28;20026;-67
2023/09/02 04:53:25;;;;;;;13.63;11.63;;;13.50;99.90;;;;;;5021723;28;20030;-67
2023/09/02 04:55:52;;;;;;;19.85;12.52;;;13.50;99.90;;;;;;5033178;28;20082;-67
2023/09/02 04:58:21;;;;;;;20.25;12.38;;;13.70;99.90;;;;;;5033300;28;20032;-67
2023/09/02 05:00:47;;;;;;;20.65;12.68;;;13.70;99.90;;;;;;5033174;28;20029;-67
2023/09/02 05:03:13;;;;;;;19.58;12.50;;;13.80;99.90;;;;;;5034449;28;20114;-67
2023/09/02 05:05:40;;;;;;;14.38;11.93;;;13.80;99.90;;;;;;5034352;28;20124;-67
2023/09/02 05:08:10;;;;;;;14.52;12.35;;;13.90;99.90;;;;;;5033242;28;20029;-67
2023/09/02 05:10:37;;;;;;;20.40;13.77;;;13.90;99.90;;;;;;5033175;28;20435;-67
2023/09/02 05:13:04;;;;;;;21.52;14.70;;;14.00;99.90;;;;;;5032947;28;20048;-67
2023/09/02 05:15:31;;;;;;;21.55;15.48;;;14.10;99.90;;;;;;5033019;28;20033;-67
2023/09/02 05:17:58;;;;;;;24.05;14.27;;;14.30;99.90;;;;;;5033001;28;20030;-67
2023/09/02 05:20:25;;;;;;;17.02;13.05;;;14.40;99.90;;;;;;5033040;28;20033;-67
2023/09/02 05:22:51;;;;;;;22.00;12.45;;;14.50;99.90;;;;;;5038058;28;20474;-67
2023/09/02 05:25:17;;;;;;;23.05;13.38;;;14.50;99.90;;;;;;5021416;28;20040;-67
2023/09/02 05:27:44;;;;;;;25.50;14.18;;;14.70;99.90;;;;;;5017305;28;20463;-67
2023/09/02 05:30:10;;;;;;;20.90;13.15;;;14.90;99.90;;;;;;5018553;28;20030;-67
2023/09/02 05:32:36;;;;;;;19.42;12.55;;;15.10;99.90;;;;;;5018517;28;20053;-67
2023/09/02 05:35:02;;;;;;;18.85;12.50;;;15.20;99.90;;;;;;5018424;28;20030;-67
2023/09/02 05:37:28;;;;;;;18.48;12.50;;;15.30;99.90;;;;;;5018562;28;20040;-68
2023/09/02 05:39:54;;;;;;;27.40;13.95;;;15.30;99.90;;;;;;5018255;28;20394;-67
2023/09/02 05:42:20;;;;;;;25.05;13.38;;;15.50;99.90;;;;;;5018237;28;20026;-67
2023/09/02 05:44:46;;;;;;;26.70;12.75;;;15.60;99.90;;;;;;5018257;28;20213;-68
2023/09/02 05:47:11;;;;;;;42.65;15.95;;;15.80;99.90;;;;;;5018130;28;20360;-68
2023/09/02 05:49:37;;;;;;;23.02;13.18;;;15.80;99.90;;;;;;5018230;28;20026;-68
2023/09/02 05:52:05;;;;;;;21.02;12.55;;;15.90;99.90;;;;;;5018043;28;20037;-68
2023/09/02 05:54:31;;;;;;;22.60;12.35;;;16.00;99.90;;;;;;5035229;28;20075;-68
2023/09/02 05:56:57;;;;;;;18.20;12.13;;;16.30;99.90;;;;;;5037725;28;20033;-68
2023/09/02 05:59:23;;;;;;;19.85;12.55;;;16.50;99.90;;;;;;5037958;28;20026;-68
2023/09/02 06:01:49;;;;;;;19.27;12.77;;;16.70;99.90;;;;;;5037865;28;20375;-67
2023/09/02 06:04:15;;;;;;;17.50;11.93;;;16.80;99.90;;;;;;5037590;28;20056;-67
2023/09/02 06:06:42;;;;;;;20.13;11.95;;;16.90;99.90;;;;;;5037682;28;20041;-67
2023/09/02 06:09:10;;;;;;;19.75;12.57;;;17.10;99.90;;;;;;5037588;28;20463;-68
2023/09/02 06:11:36;;;;;;;26.20;12.90;;;17.10;99.90;;;;;;5037312;28;20101;-68
2023/09/02 06:14:02;;;;;;;20.48;12.50;;;17.40;99.90;;;;;;5037663;28;20116;-68
2023/09/02 06:16:28;;;;;;;20.77;12.60;;;17.60;99.90;;;;;;5037523;28;20112;-67
2023/09/02 06:18:54;;;;;;;20.67;13.77;;;17.80;99.90;;;;;;5037373;28;20056;-68
2023/09/02 06:21:20;;;;;;;29.15;13.52;;;18.10;99.90;;;;;;5037352;28;20593;-67
2023/09/02 06:23:45;;;;;;;18.67;13.13;;;18.20;99.90;;;;;;5033289;28;20032;-67
2023/09/02 06:26:12;;;;;;;23.55;14.38;;;18.40;99.90;;;;;;5017295;28;20104;-68
2023/09/02 06:28:39;;;;;;;19.52;12.98;;;18.50;99.90;;;;;;5017497;28;20069;-68
2023/09/02 06:31:06;;;;;;;17.25;12.07;;;18.80;99.90;;;;;;5017418;28;20022;-67
2023/09/02 06:33:32;;;;;;;18.48;12.18;;;19.10;99.90;;;;;;5016668;28;20050;-67
2023/09/02 06:35:58;;;;;;;17.08;12.15;;;19.40;99.90;;;;;;5017182;28;20049;-67
2023/09/02 06:38:24;;;;;;;18.88;12.27;;;19.60;99.90;;;;;;5017308;28;20030;-67
2023/09/02 06:40:50;;;;;;;20.10;13.27;;;19.80;99.90;;;;;;5017002;28;20041;-67
2023/09/02 06:43:16;;;;;;;23.83;13.25;;;20.30;99.90;;;;;;5017097;28;20026;-67
2023/09/02 06:45:42;;;;;;;19.77;12.70;;;20.70;99.90;;;;;;5017158;28;20495;-67
2023/09/02 06:48:08;;;;;;;16.77;12.00;;;21.20;99.90;;;;;;5017027;28;20102;-67
2023/09/02 06:50:34;;;;;;;18.70;12.60;;;21.50;98.70;;;;;;5016982;28;20037;-67
2023/09/02 06:53:00;;;;;;;16.92;13.60;;;22.10;97.80;;;;;;5021716;28;20215;-68
2023/09/02 06:55:26;;;;;;;17.55;12.90;;;22.00;95.60;;;;;;5035458;28;20383;-68
2023/09/02 06:57:51;;;;;;;16.58;11.95;;;22.10;96.20;;;;;;5036815;28;20471;-68
2023/09/02 07:00:17;;;;;;;19.88;12.32;;;22.30;95.10;;;;;;5036605;28;20087;-68
2023/09/02 07:02:43;;;;;;;19.02;12.27;;;22.70;92.80;;;;;;5036473;28;20426;-68
2023/09/02 07:05:09;;;;;;;16.55;10.25;;;22.80;92.30;;;;;;5036322;28;20372;-68
2023/09/02 07:07:37;;;;;;;18.70;11.13;;;23.10;92.30;;;;;;5036519;28;20018;-68
2023/09/02 07:10:04;;;;;;;18.60;11.85;;;23.30;90.50;;;;;;5036492;28;20037;-68
2023/09/02 07:12:30;;;;;;;16.48;9.85;;;23.30;89.30;;;;;;5036264;28;20108;-68
2023/09/02 07:14:56;;;;;;;14.80;9.55;;;23.20;90.00;;;;;;5036351;28;20061;-68
2023/09/02 07:17:22;;;;;;;17.15;11.07;;;23.80;90.10;;;;;;5036268;28;20034;-68
2023/09/02 07:19:47;;;;;;;13.10;8.77;;;24.00;87.90;;;;;;5036693;28;20037;-68
2023/09/02 07:22:13;;;;;;;16.92;9.90;;;24.30;86.70;;;;;;5036261;28;20513;-68
2023/09/02 07:24:39;;;;;;;12.13;8.90;;;24.80;83.80;;;;;;5024446;28;20037;-68
2023/09/02 07:27:05;;;;;;;8.88;7.45;;;24.80;79.20;;;;;;5016194;28;20033;-68
2023/09/02 07:29:31;;;;;;;13.95;8.52;;;25.10;80.30;;;;;;5016284;28;20076;-69
2023/09/02 07:31:57;;;;;;;12.45;7.97;;;25.30;81.20;;;;;;5016216;28;20029;-68
2023/09/02 07:34:23;;;;;;;11.23;8.40;;;25.60;74.90;;;;;;5016206;28;20431;-68
2023/09/02 07:36:49;;;;;;;20.70;9.00;;;25.50;75.90;;;;;;5016082;28;20476;-68
2023/09/02 07:39:16;;;;;;;14.20;8.40;;;25.90;73.30;;;;;;5016032;28;20030;-69
2023/09/02 07:41:43;;;;;;;12.43;9.27;;;26.00;70.80;;;;;;5015984;28;20064;-69
2023/09/02 07:44:09;;;;;;;12.88;8.70;;;26.00;70.00;;;;;;5015579;28;20092;-69
2023/09/02 07:46:35;;;;;;;12.05;8.32;;;25.80;70.20;;;;;;5015350;28;20022;-69
2023/09/02 07:49:01;;;;;;;11.25;7.93;;;26.00;70.80;;;;;;5015978;28;20493;-69
2023/09/02 07:51:26;;;;;;;9.20;6.65;;;26.30;70.30;;;;;;5015764;28;20026;-69
2023/09/02 07:53:52;;;;;;;14.95;8.90;;;26.60;69.40;;;;;;5027616;28;20074;-69
2023/09/02 07:56:18;;;;;;;13.38;8.02;;;27.00;66.40;;;;;;5035639;28;20064;-69
2023/09/02 07:58:48;;;;;;;14.70;7.63;;;27.00;65.60;;;;;;5035620;28;20041;-69
2023/09/02 08:01:14;;;;;;;16.17;8.47;;;27.30;62.20;;;;;;5035487;28;20039;-69
2023/09/02 08:03:40;;;;;;;11.50;7.80;;;27.50;62.50;;;;;;5035523;28;20644;-69
2023/09/02 08:06:08;;;;;;;13.70;8.20;;;28.10;65.90;;;;;;5035039;28;20048;-69
2023/09/02 08:08:35;;;;;;;10.85;7.18;;;28.20;57.70;;;;;;5034030;28;20115;-69
2023/09/02 08:11:02;;;;;;;10.38;7.75;;;27.50;60.60;;;;;;5035246;28;20029;-69
2023/09/02 08:13:28;;;;;;;10.60;7.88;;;28.00;57.70;;;;;;5035205;28;20307;-69
2023/09/02 08:15:54;;;;;;;10.15;7.07;;;28.10;58.90;;;;;;5035183;28;20334;-69
2023/09/02 08:18:20;;;;;;;8.50;6.78;;;28.50;59.00;;;;;;5035110;28;20036;-70
2023/09/02 08:20:45;;;;;;;9.20;7.00;;;29.00;56.40;;;;;;5035076;28;20033;-70
2023/09/02 08:23:11;;;;;;;9.55;6.40;;;29.20;55.40;;;;;;5035083;28;20029;-70
2023/09/02 08:25:37;;;;;;;9.48;6.40;;;29.00;52.70;;;;;;5015520;28;20021;-70
2023/09/02 08:28:03;;;;;;;7.13;6.43;;;29.30;52.20;;;;;;5015212;28;20088;-70
2023/09/02 08:30:29;;;;;;;10.75;6.20;;;29.50;51.20;;;;;;5015162;28;20504;-71
2023/09/02 08:32:55;;;;;;;10.02;6.93;;;28.40;53.80;;;;;;5015440;28;20033;-70
2023/09/02 08:35:21;;;;;;;10.45;6.30;;;28.60;52.60;;;;;;5015194;28;20391;-70
2023/09/02 08:37:47;;;;;;;7.95;5.97;;;29.60;51.90;;;;;;5015075;28;20434;-71
2023/09/02 08:40:14;;;;;;;9.60;6.30;;;29.30;51.50;;;;;;5015320;28;20037;-70
2023/09/02 08:42:41;;;;;;;12.57;7.22;;;30.00;51.90;;;;;;5015120;28;20052;-70
2023/09/02 08:45:12;;;;;;;14.93;6.60;;;30.30;48.30;;;;;;5014844;28;20033;-71
2023/09/02 08:47:42;;;;;;;10.93;6.10;;;30.50;47.60;;;;;;5015017;28;20549;-70
2023/09/02 08:50:09;;;;;;;10.90;6.55;;;30.80;46.30;;;;;;5015006;28;20081;-70
2023/09/02 08:52:40;;;;;;;13.95;6.47;;;31.00;45.90;;;;;;5016242;28;20044;-70
2023/09/02 08:55:06;;;;;;;;;;;31.20;44.50;;;;;;5035034;28;20109;-71
2023/09/02 08:57:33;;;;;;;9.40;6.05;;;31.50;45.80;;;;;;5066475;28;19992;-71
2023/09/02 08:59:59;;;;;;;10.52;6.18;;;31.50;43.80;;;;;;5034513;28;20072;-70
2023/09/02 09:02:27;;;;;;;8.32;6.40;;;31.70;42.70;;;;;;5034429;28;20088;-71
2023/09/02 09:04:54;;;;;;;9.52;6.25;;;31.90;42.50;;;;;;5034192;28;20053;-70
2023/09/02 09:07:22;;;;;;;10.95;5.78;;;30.90;41.80;;;;;;5034462;28;20045;-70
2023/09/02 09:09:49;;;;;;;9.50;5.85;;;31.60;43.00;;;;;;5034312;28;20091;-70
2023/09/02 09:12:19;;;;;;;8.88;5.70;;;32.00;40.00;;;;;;5034290;28;20049;-71
2023/09/02 09:14:49;;;;;;;7.28;5.30;;;31.80;39.50;;;;;;5034309;28;20036;-70
2023/09/02 09:17:15;;;;;;;9.93;6.82;;;32.40;39.20;;;;;;5034304;28;20463;-71
2023/09/02 09:19:42;;;;;;;8.52;5.60;;;32.60;37.60;;;;;;5034432;28;20033;-71
2023/09/02 09:22:08;;;;;;;8.30;5.45;;;32.70;37.00;;;;;;5034638;28;20028;-71
2023/09/02 09:24:34;;;;;;;13.02;6.55;;;32.70;36.80;;;;;;5023247;28;20105;-71
2023/09/02 09:27:05;;;;;;;7.65;5.43;;;32.90;36.90;;;;;;5014251;28;20065;-70
2023/09/02 09:29:41;;;;;;;10.93;5.97;;;32.90;35.70;;;;;;5014411;28;20164;-71
2023/09/02 09:32:12;;;;;;;7.45;5.68;;;32.60;35.60;;;;;;5014455;28;20050;-71
2023/09/02 09:34:43;;;;;;;7.30;5.32;;;33.10;36.20;;;;;;5014470;28;20412;-70
2023/09/02 09:37:09;;;;;;;6.47;4.88;;;32.70;36.60;;;;;;5014360;28;20053;-71
2023/09/02 09:39:53;;;;;;;8.63;5.80;;;33.10;36.20;;;;;;5014241;28;20376;-71
2023/09/02 09:42:34;;;;;;;6.00;5.18;;;32.80;35.30;;;;;;5014277;28;20161;-71
2023/09/02 09:45:02;;;;;;;5.25;4.53;;;33.00;32.60;;;;;;5014269;28;20065;-71
2023/09/02 09:47:28;;;;;;;9.77;5.00;;;33.00;33.00;;;;;;5014178;28;20498;-70
2023/09/02 09:50:11;;;;;;;5.82;3.83;;;33.00;32.10;;;;;;5014330;28;20037;-70
2023/09/02 09:52:37;;;;;;;9.10;5.07;;;33.50;30.00;;;;;;5015672;28;20109;-70
2023/09/02 09:55:03;;;;;;;9.32;4.88;;;33.80;32.20;;;;;;5033928;28;20071;-71
2023/09/02 09:57:36;;;;;;;10.95;5.15;;;34.00;31.50;;;;;;5034013;28;20022;-71
2023/09/02 10:00:07;;;;;;;10.98;4.57;;;34.00;31.70;;;;;;5033933;28;20037;-71
2023/09/02 10:02:34;;;;;;;4.82;4.18;;;34.30;31.40;;;;;;5033864;28;20034;-70
2023/09/02 10:05:01;;;;;;;3.85;2.70;;;34.40;27.70;;;;;;5033668;28;20079;-71
2023/09/02 10:07:32;;;;;;;5.47;3.53;;;34.50;26.20;;;;;;5033906;28;20064;-70
2023/09/02 10:10:00;;;;;;;9.50;4.80;;;34.50;26.40;;;;;;5037344;28;20053;-71
2023/09/02 10:12:33;;;;;;;3.60;2.80;;;34.40;24.50;;;;;;5037527;28;20387;-71
2023/09/02 10:15:00;;;;;;;5.55;3.20;;;33.20;25.40;;;;;;5037479;28;20025;-71
2023/09/02 10:17:27;;;;;;;4.03;2.45;;;33.60;23.50;;;;;;5036081;28;20026;-71
2023/09/02 10:19:53;;;;;;;3.83;2.45;;;32.80;22.90;;;;;;5037427;28;20125;-71
2023/09/02 10:22:22;;;;;;;2.53;2.15;;;32.90;22.60;;;;;;5037543;28;20100;-71
2023/09/02 10:25:06;;;;;;;5.63;2.58;;;32.10;21.50;;;;;;5024492;28;20030;-71
2023/09/02 10:27:38;;;;;;;4.15;2.65;;;33.20;21.90;;;;;;5017465;28;20034;-70
2023/09/02 10:30:06;;;;;;;4.35;2.60;;;34.00;21.70;;;;;;5017373;28;20044;-71
2023/09/02 10:32:44;;;;;;;3.92;3.17;;;34.40;21.40;;;;;;5017312;28;20037;-71
2023/09/02 10:35:30;;;;;;;5.13;3.10;;;34.10;21.50;;;;;;5017477;28;20036;-71
2023/09/02 10:38:02;;;;;;;4.63;3.15;;;35.10;22.30;;;;;;5017277;28;20105;-72
2023/09/02 10:40:36;;;;;;;5.88;3.17;;;34.60;22.30;;;;;;5017112;28;20030;-72
2023/09/02 10:43:02;;;;;;;3.53;2.97;;;35.00;19.90;;;;;;5017215;28;20038;-71
2023/09/02 10:45:29;;;;;;;3.05;2.78;;;35.20;19.70;;;;;;5017066;28;20030;-71
2023/09/02 10:47:55;;;;;;;5.10;3.25;;;35.50;19.90;;;;;;5017242;28;20030;-71
2023/09/02 10:50:23;;;;;;;4.47;3.30;;;35.80;20.30;;;;;;5016953;28;20361;-72
2023/09/02 10:52:54;;;;;;;7.03;2.50;;;36.00;20.20;;;;;;5020070;28;20045;-72
2023/09/02 10:55:21;;;;;;;7.15;3.00;;;35.00;17.40;;;;;;5036777;28;20390;-72
2023/09/02 10:57:51;;;;;;;6.95;2.78;;;34.80;20.60;;;;;;5036816;28;20105;-72
2023/09/02 11:00:26;;;;;;;;;;;35.00;17.10;;;;;;5037137;28;20038;-72
2023/09/02 11:02:55;;;;;;;6.05;3.30;;;35.10;18.60;;;;;;5036521;28;19916;-72
2023/09/02 11:05:22;;;;;;;3.97;2.33;;;35.60;16.90;;;;;;5036233;28;20073;-72
2023/09/02 11:07:49;;;;;;;3.38;2.42;;;33.00;16.00;;;;;;5036552;28;20037;-72
2023/09/02 11:10:16;;;;;;;6.55;3.50;;;33.20;18.00;;;;;;5036441;28;20793;-72
2023/09/02 11:13:00;;;;;;;8.35;3.42;;;34.30;16.80;;;;;;5036393;28;20068;-72
2023/09/02 11:15:26;;;;;;;3.20;2.60;;;34.40;18.30;;;;;;5036606;28;20049;-72
2023/09/02 11:17:53;;;;;;;5.03;3.45;;;35.20;19.80;;;;;;5036217;28;20022;-71
2023/09/02 11:20:26;;;;;;;2.90;2.58;;;35.40;19.90;;;;;;5036177;28;20041;-72
2023/09/02 11:23:01;;;;;;;3.20;2.20;;;34.60;17.00;;;;;;5036310;28;20032;-71
2023/09/02 11:25:28;;;;;;;3.67;2.22;;;33.70;17.70;;;;;;5018066;28;20475;-72
2023/09/02 11:27:55;;;;;;;3.08;2.13;;;34.70;17.10;;;;;;5016267;28;20025;-72
2023/09/02 11:30:25;;;;;;;4.05;2.47;;;35.60;17.00;;;;;;5016355;28;20034;-72
2023/09/02 11:32:52;;;;;;;3.15;1.92;;;35.30;13.50;;;;;;5016359;28;20097;-72
2023/09/02 11:35:32;;;;;;;3.67;1.60;;;34.40;14.20;;;;;;5016277;28;20037;-72
2023/09/02 11:37:59;;;;;;;5.78;3.17;;;35.20;13.80;;;;;;5016206;28;20510;-72
2023/09/02 11:40:26;;;;;;;3.47;2.50;;;35.30;15.70;;;;;;5016151;28;20034;-71
2023/09/02 11:42:55;;;;;;;6.25;2.78;;;35.10;17.30;;;;;;5015897;28;20546;-72
2023/09/02 11:45:22;;;;;;;6.05;2.88;;;35.70;17.90;;;;;;5015897;28;20464;-71
2023/09/02 11:47:49;;;;;;;3.97;2.58;;;35.80;15.20;;;;;;5015959;28;20029;-71
2023/09/02 11:50:18;;;;;;;2.67;2.22;;;35.80;13.70;;;;;;5015840;28;20376;-72
2023/09/02 11:52:45;;;;;;;6.93;2.93;;;35.20;14.10;;;;;;5018613;28;20033;-71
2023/09/02 11:55:16;;;;;;;2.67;2.40;;;36.00;14.80;;;;;;5035704;28;20255;-71
2023/09/02 11:57:43;;;;;;;5.95;2.58;;;36.20;14.00;;;;;;5035687;28;20033;-71
2023/09/02 12:00:16;;;;;;;6.25;2.38;;;36.30;13.30;;;;;;5035375;28;20033;-71
2023/09/02 12:02:41;;;;;;;3.03;2.10;;;36.30;13.50;;;;;;5035255;28;20116;-72
2023/09/02 12:05:08;;;;;;;2.42;2.05;;;36.50;14.30;;;;;;5035007;28;20188;-71
2023/09/02 12:07:36;;;;;;;2.47;1.95;;;36.50;13.20;;;;;;5035271;28;20033;-72
2023/09/02 12:10:07;;;;;;;3.70;2.10;;;36.00;13.00;;;;;;5035151;28;20510;-71
2023/09/02 12:12:34;;;;;;;4.93;2.75;;;36.60;14.10;;;;;;5035153;28;20029;-71
2023/09/02 12:15:01;;;;;;;7.13;3.40;;;36.40;13.60;;;;;;5035235;28;20029;-72
2023/09/02 12:17:28;;;;;;;5.22;2.70;;;35.80;13.70;;;;;;5035080;28;20019;-72
2023/09/02 12:19:54;;;;;;;6.10;2.65;;;35.50;14.40;;;;;;5035179;28;20168;-72
2023/09/02 12:22:21;;;;;;;3.85;2.25;;;36.20;14.90;;;;;;5034855;28;20022;-72
2023/09/02 12:24:47;;;;;;;2.35;2.15;;;34.60;14.00;;;;;;5022314;28;20113;-72
2023/09/02 12:27:16;;;;;;;2.83;1.90;;;34.00;15.60;;;;;;5015293;28;20494;-72
2023/09/02 12:29:54;;;;;;;2.05;1.90;;;34.80;15.20;;;;;;5015596;28;20029;-72
2023/09/02 12:32:20;;;;;;;3.58;2.30;;;35.80;17.00;;;;;;5014536;28;20076;-72
2023/09/02 12:34:46;;;;;;;4.00;2.60;;;36.20;15.50;;;;;;5015200;28;20018;-71
2023/09/02 12:37:22;;;;;;;2.50;2.30;;;36.40;15.10;;;;;;5015106;28;20029;-72